Tiempo atmosférico en la estación meteorológica de Santervás de la Vega, Villapún, Palencia (985 m.)



Fecha
DESCASC
Temp. máxima en grados centígrados (hora)
DESCASC
Temp. mínima en grados centígrados (hora)
DESCASC
Temp. media en grados centígrados
DESCASC
Racha de viento máxima en m/sg (hora)
DESCASC
Velocidad máxima media en intervalos de 10 minutos(hora)
DESCASC
Precipitaciones diarias en mm
DESCASC
Precipitaciones de 00:00 a 06:00 en mm
DESCASC
Precipitaciones de 06:00 a 12:00 en mm
DESCASC
Precipitaciones de 12:00 a 18:00 en mm
DESCASC
Precipitaciones de 18:00 a 24:00 en mm
DESCASC
10-11-2019 4 (15:10) 0.2 (00:00) 2.1 9.44 (02:20) 5 (11:40) 2.8 0 0.8 1.8 0.2
09-11-2019 10.3 (16:30) 1 (00:00) 5.7 8.89 (21:40) 5.28 (20:00) 0.8 0 0.8 0 0
08-11-2019 7.2 (14:30) -0.2 (07:50) 3.5 14.72 (15:30) 7.5 (14:20) 0.2 0 0.2 0 0
07-11-2019 8 (02:00) 0.1 (00:00) 4.1 14.72 (14:00) 9.17 (13:50) 1 0.8 0 0.2 0
06-11-2019 10.1 (15:20) 1.9 (00:00) 6 10.83 (21:20) 6.39 (22:50) 0.6 0 0 0 0.6
05-11-2019 9.1 (14:40) 2.7 (00:00) 5.9 13.61 (13:40) 7.78 (11:00) 2.8 0 0.6 2 0.2
04-11-2019 12.1 (14:40) 4.6 (00:00) 8.4 17.5 (07:30) 10.56 (07:20) 3.2 1 2 0.2 0
03-11-2019 11.3 (15:50) 5.9 (00:00) 8.6 20.28 (04:40) 11.94 (05:00) 1 0.2 0 0 0.8
02-11-2019 12.3 (12:40) 8.6 (00:00) 10.5 17.22 (23:50) 10.83 (23:50) 0.6 0.2 0.2 0 0.2
01-11-2019 16.3 (15:20) 12 (00:00) 14.1 14.17 (14:30) 10 (14:40) 1.8 0 0.2 1.6 0
31-10-2019 17.4 (14:20) 10.4 (06:30) 13.9 8.33 (15:40) 4.72 (15:20) 0 0 0 0 0
30-10-2019 13.7 (16:30) 10.9 (00:00) 12.3 8.33 (22:30) 5 (21:10) 1 0 0 0 1
29-10-2019 16.8 (14:50) 9.4 (00:00) 13.1 7.22 (14:40) 4.44 (14:40) 0 0 0 0 0
28-10-2019 18.4 (14:50) 7.5 (00:00) 12.9 8.33 (15:00) 4.72 (13:10) 0.2 0.2 0 0 0
27-10-2019 16.6 (14:40) 7 (00:00) 11.8 4.44 (14:00) 2.78 (14:10) 0 0 0 0 0
26-10-2019 18.1 (15:30) 4.2 (00:00) 11.2 7.22 (15:40) 4.72 (15:40) 0 0 0 0 0
25-10-2019 15.1 (17:30) 5.7 (00:00) 10.4 5.28 (14:50) 3.06 (15:00) 0.2 0.2 0 0 0
24-10-2019 11.9 (19:30) 4.7 (00:00) 8.3 7.5 (12:00) 5.28 (12:40) 3 3 0 0 0
23-10-2019 9 (08:10) 4.9 (00:00) 7 10 (13:40) 5 (13:00) 16 1.2 3 4.4 7.4
22-10-2019 10.6 (15:10) 2.9 (04:40) 6.8 11.39 (14:10) 8.33 (13:10) 0.6 0.2 0 0 0.4
21-10-2019 9.6 (17:50) 0.8 (00:00) 5.2 5 (16:30) 3.06 (12:50) 0 0 0 0 0
20-10-2019 8.3 (00:00) 3.4 (00:00) 5.9 7.5 (09:10) 5 (02:00) 13.4 6 6.2 1.2 0
19-10-2019 10.5 (18:40) 8.1 (00:00) 9.3 10 (12:40) 5.83 (12:50) 19 1.6 4 7.6 5.8
18-10-2019 13 (01:10) 8.4 (00:00) 10.7 10 (14:50) 6.39 (13:50) 1 1 0 0 0
17-10-2019 17.4 (16:50) 9.8 (00:00) 13.6 11.67 (18:20) 7.5 (18:20) 11.4 10.4 0.4 0.2 0.4
16-10-2019 12.3 (18:00) 7.7 (00:00) 10 10.28 (12:50) 6.39 (12:30) 4.4 0 0.2 0 4.2
15-10-2019 11.2 (15:50) 1.2 (00:00) 6.2 10.56 (00:30) 7.5 (18:40) 1.2 0 0 0 1.2
14-10-2019 12 (00:00) 4.8 (00:00) 8.4 13.33 (18:00) 7.78 (18:00) 6.4 0 3.4 1.8 1.2

Gráficas

Temp. máximas Temp. mínimas Temp. medias Precipitaciones Rachas de viento máximas Velocidades máximas media en intervalos de 10 minutos

Datos horarios

Fecha y hora oficial Temperatura (ºC) Velocidad del viento (km/h) Dirección del viento Racha (km/h) Dirección de racha Precipitación (mm) Presión (hPa) Tendencia (hPa) Humedad (%)
2019-11-12 23:00:00 6.3 19 Oeste 30 Noroeste 0.6 -- -- 100
2019-11-12 22:00:00 6.2 18 Oeste 33 Oeste 0.6 -- -- 100
2019-11-12 21:00:00 5.8 22 Oeste 35 Oeste 0.6 -- -- 100
2019-11-12 20:00:00 5.7 21 Oeste 36 Oeste 0.6 -- -- 99
2019-11-12 19:00:00 6 14 Oeste 23 Oeste 2 -- -- 99
2019-11-12 18:00:00 5.7 4 Oeste 11 Noroeste 1.8 -- -- 97
2019-11-12 17:00:00 6 8 Noroeste 21 Oeste 0.6 -- -- 95
2019-11-12 16:00:00 6.3 14 Oeste 32 Oeste 0.4 -- -- 92
2019-11-12 15:00:00 7 20 Oeste 36 Oeste 0 -- -- 83
2019-11-12 14:00:00 7.7 16 Oeste 27 Oeste 0 -- -- 76
2019-11-12 13:00:00 7.4 17 Oeste 29 Oeste 0 -- -- 75
2019-11-12 12:00:00 6.3 13 Noroeste 23 Oeste 0 -- -- 76
2019-11-12 11:00:00 5.3 9 Noroeste 24 Noroeste 0 -- -- 82
2019-11-12 10:00:00 5 12 Noroeste 21 Noroeste 0 -- -- 82
2019-11-12 09:00:00 3 8 Noroeste 15 Noroeste 0 -- -- 90
2019-11-12 08:00:00 2.5 9 Noroeste 13 Oeste 0 -- -- 91
2019-11-12 07:00:00 2.6 4 Oeste 10 Oeste 0 -- -- 92
2019-11-12 06:00:00 2.9 3 Oeste 11 Noroeste 0 -- -- 88
2019-11-12 05:00:00 3 5 Noroeste 13 Noroeste 0 -- -- 88
2019-11-12 04:00:00 3.1 5 Noroeste 14 Noroeste 0 -- -- 86
2019-11-12 03:00:00 3 5 Noroeste 16 Noroeste 0 -- -- 85
2019-11-12 02:00:00 3.1 6 Noroeste 15 Noroeste 0 -- -- 85
2019-11-12 01:00:00 2.8 8 Noroeste 17 Noroeste 0 -- -- 87
2019-11-12 00:00:00 2.6 8 Noroeste 20 Norte 0 -- -- 86
2019-11-11 23:00:00 2 8 Norte 18 Norte 0 -- -- 89
2019-11-11 22:00:00 1.3 3 Noroeste 9 Noroeste 0 -- -- 89
2019-11-11 21:00:00 2.6 4 Norte 12 Noroeste 0 -- -- 85
2019-11-11 20:00:00 3.4 0 Calma 17 Noroeste 0 -- -- 85
2019-11-11 19:00:00 4.5 7 Noroeste 15 Norte 0 -- -- 83
2019-11-11 18:00:00 5.8 6 Noroeste 17 Norte 0 -- -- 78
2019-11-11 17:00:00 7.5 8 Norte 25 Nordeste 0 -- -- 70
2019-11-11 16:00:00 7.9 16 Nordeste 35 Nordeste 0 -- -- 71
2019-11-11 15:00:00 8.7 21 Nordeste 39 Norte 0 -- -- 70
2019-11-11 14:00:00 9.5 11 Norte 30 Nordeste 0 -- -- 75
2019-11-11 13:00:00 8.4 6 Nordeste 20 Norte 0 -- -- 91
2019-11-11 12:00:00 6.4 6 Noroeste 19 Noroeste 0 -- -- 100
2019-11-11 11:00:00 4.8 13 Noroeste 24 Noroeste 0 -- -- 100
2019-11-11 10:00:00 4.3 12 Oeste 20 Oeste 0 -- -- 100
2019-11-11 09:00:00 3.3 4 Oeste 10 Oeste 0.2 -- -- 100
2019-11-11 08:00:00 3 0 Calma 11 Oeste 0.6 -- -- 100
2019-11-11 07:00:00 2.5 5 Oeste 11 Oeste 0 -- -- 100
2019-11-11 06:00:00 2.2 5 Oeste 13 Oeste 0 -- -- 100
2019-11-11 05:00:00 2.2 7 Oeste 11 Oeste 0 -- -- 100
2019-11-11 04:00:00 1.9 0 Calma 7 Norte 0 -- -- 99
2019-11-11 03:00:00 1.5 4 Noroeste 10 Noroeste 0 -- -- 99
2019-11-11 02:00:00 1.5 4 Noroeste 10 Noroeste 0 -- -- 100
2019-11-11 01:00:00 1.3 5 Noroeste 10 Noroeste 0 -- -- 100
2019-11-11 00:00:00 1.5 5 Oeste 14 Oeste 0 -- -- 99
2019-11-10 23:00:00 1.9 11 Noroeste 17 Noroeste 0 -- -- 99
2019-11-10 22:00:00 2.2 9 Noroeste 15 Oeste 0 -- -- 98
2019-11-10 21:00:00 2.6 9 Oeste 17 Noroeste 0 -- -- 98
2019-11-10 20:00:00 3.3 5 Oeste 14 Noroeste 0 -- -- 97
2019-11-10 19:00:00 3 4 Noroeste 11 Noroeste 0.2 -- -- 97
2019-11-10 18:00:00 2.8 6 Noroeste 10 Noroeste 0 -- -- 95
2019-11-10 17:00:00 3.4 4 Noroeste 16 Norte 0.2 -- -- 95
2019-11-10 16:00:00 3.8 9 Noroeste 19 Noroeste 0 -- -- 95
2019-11-10 15:00:00 3.7 12 Noroeste 32 Noroeste 0 -- -- 96
2019-11-10 14:00:00 3.5 11 Noroeste 33 Noroeste 0 -- -- 96
2019-11-10 13:00:00 2.5 13 Noroeste 30 Oeste 1.6 -- -- 99
2019-11-10 12:00:00 2.8 15 Noroeste 32 Noroeste 0.4 -- -- 95
2019-11-10 11:00:00 2.5 10 Noroeste 28 Noroeste 0.4 -- -- 96
2019-11-10 10:00:00 2.3 12 Noroeste 24 Noroeste 0 -- -- 95
2019-11-10 09:00:00 1.4 11 Noroeste 26 Oeste 0 -- -- 96
2019-11-10 08:00:00 0.7 12 Noroeste 30 Noroeste 0 -- -- 97
2019-11-10 07:00:00 0.7 11 Noroeste 22 Oeste 0 -- -- 96
2019-11-10 06:00:00 0.5 6 Noroeste 18 Norte 0 -- -- 96
2019-11-10 05:00:00 0.8 8 Norte 24 Noroeste 0 -- -- 93
2019-11-10 04:00:00 0.9 12 Noroeste 26 Noroeste 0 -- -- 91
2019-11-10 03:00:00 1 12 Noroeste 34 Noroeste 0 -- -- 93
2019-11-10 02:00:00 1.3 11 Noroeste 29 Noroeste 0 -- -- 94
2019-11-10 01:00:00 2 11 Noroeste 27 Noroeste 0 -- -- 93
2019-11-10 00:00:00 2.3 12 Noroeste 24 Noroeste 0 -- -- 94
2019-11-09 23:00:00 3.4 9 Norte 24 Noroeste 0 -- -- 91
2019-11-09 22:00:00 4.6 13 Noroeste 32 Norte 0 -- -- 85
2019-11-09 21:00:00 5.9 13 Noroeste 31 Noroeste 0 -- -- 81
2019-11-09 20:00:00 6.3 19 Noroeste 30 Oeste 0 -- -- 81
2019-11-09 19:00:00 6.4 5 Oeste 9 Norte 0 -- -- 95
2019-11-09 18:00:00 7.7 3 Norte 7 Norte 0 -- -- 91
2019-11-09 17:00:00 9.3 3 Noroeste 18 Oeste 0 -- -- 84
2019-11-09 16:00:00 9.6 13 Oeste 24 Oeste 0 -- -- 83
2019-11-09 15:00:00 6.9 12 Noroeste 22 Oeste 0 -- -- 95
2019-11-09 14:00:00 5.4 8 Oeste 21 Oeste 0 -- -- 99
2019-11-09 13:00:00 5.1 12 Oeste 27 Oeste 0 -- -- 98
2019-11-09 12:00:00 4.3 15 Oeste 24 Oeste 0 -- -- 98
2019-11-09 11:00:00 3.5 13 Oeste 26 Oeste 0 -- -- 99
2019-11-09 10:00:00 2.9 13 Oeste 19 Oeste 0.4 -- -- 98
2019-11-09 09:00:00 2.8 10 Noroeste 18 Noroeste 0.2 -- -- 98
2019-11-09 08:00:00 2.5 9 Oeste 19 Noroeste 0.2 -- -- 97
2019-11-09 07:00:00 2.6 9 Noroeste 21 Oeste 0 -- -- 96
2019-11-09 06:00:00 2.6 9 Noroeste 18 Oeste 0 -- -- 95
2019-11-09 05:00:00 2.4 10 Noroeste 23 Oeste 0 -- -- 95
2019-11-09 04:00:00 1.7 9 Noroeste 22 Noroeste 0 -- -- 96
2019-11-09 03:00:00 1.6 14 Oeste 23 Noroeste 0 -- -- 96
2019-11-09 02:00:00 1.3 14 Oeste 23 Oeste 0 -- -- 96
2019-11-09 01:00:00 1.5 10 Oeste 19 Noroeste 0 -- -- 91
2019-11-09 00:00:00 1.2 9 Noroeste 16 Noroeste 0 -- -- 90
2019-11-08 23:00:00 1.5 8 Noroeste 20 Noroeste 0 -- -- 91
2019-11-08 22:00:00 1.8 11 Noroeste 20 Noroeste 0 -- -- 88
2019-11-08 21:00:00 2.7 10 Noroeste 21 Noroeste 0 -- -- 80
2019-11-08 20:00:00 3.1 9 Noroeste 32 Noroeste 0 -- -- 79
2019-11-08 19:00:00 4 13 Noroeste 33 Noroeste 0 -- -- 78
2019-11-08 18:00:00 4.9 11 Noroeste 42 Noroeste 0 -- -- 73
2019-11-08 17:00:00 6 19 Noroeste 45 Noroeste 0 -- -- 67
2019-11-08 16:00:00 6.8 20 Noroeste 53 Noroeste 0 -- -- 64
2019-11-08 15:00:00 7 21 Noroeste 49 Noroeste 0 -- -- 66
2019-11-08 14:00:00 6.7 22 Noroeste 49 Noroeste 0 -- -- 69
2019-11-08 13:00:00 5.7 22 Noroeste 47 Noroeste 0 -- -- 73
2019-11-08 12:00:00 5.4 19 Noroeste 38 Noroeste 0 -- -- 77
2019-11-08 11:00:00 3.8 17 Noroeste 36 Noroeste 0 -- -- 89
2019-11-08 10:00:00 2.1 19 Oeste 33 Oeste 0.2 -- -- 96
2019-11-08 09:00:00 0.5 13 Oeste 28 Oeste 0 -- -- 99
2019-11-08 08:00:00 -0.2 12 Noroeste 19 Noroeste 0 -- -- 99
2019-11-08 07:00:00 0.1 8 Noroeste 26 Noroeste 0 -- -- 98
2019-11-08 06:00:00 0.3 10 Oeste 28 Oeste 0 -- -- 98
2019-11-08 05:00:00 0.5 15 Oeste 28 Noroeste 0 -- -- 98
2019-11-08 04:00:00 0.8 14 Oeste 28 Oeste 0 -- -- 96
2019-11-08 03:00:00 0.5 15 Oeste 34 Oeste 0 -- -- 96
2019-11-08 02:00:00 0.2 19 Oeste 30 Oeste 0 -- -- 96
2019-11-08 01:00:00 0 15 Oeste 31 Oeste 0 -- -- 96
2019-11-08 00:00:00 0.4 19 Oeste 32 Oeste 0 -- -- 95
2019-11-07 23:00:00 0.2 15 Oeste 31 Noroeste 0 -- -- 95
2019-11-07 22:00:00 0.4 15 Oeste 34 Oeste 0 -- -- 95
2019-11-07 21:00:00 0.9 22 Oeste 39 Noroeste 0 -- -- 88
2019-11-07 20:00:00 1.5 14 Oeste 39 Oeste 0 -- -- 86
2019-11-07 19:00:00 2.4 23 Noroeste 39 Oeste 0 -- -- 81
2019-11-07 18:00:00 3.2 26 Noroeste 44 Noroeste 0 -- -- 80
2019-11-07 17:00:00 4.9 24 Noroeste 47 Noroeste 0 -- -- 72
2019-11-07 16:00:00 5.6 22 Noroeste 40 Noroeste 0 -- -- 74
2019-11-07 15:00:00 5.3 23 Noroeste 46 Noroeste 0 -- -- 76
2019-11-07 14:00:00 5.6 33 Noroeste 53 Noroeste 0.2 -- -- 76
2019-11-07 13:00:00 7.4 26 Noroeste 45 Noroeste 0 -- -- 70
2019-11-07 12:00:00 7 24 Noroeste 40 Noroeste 0 -- -- 72
2019-11-07 11:00:00 5.8 18 Noroeste 29 Noroeste 0 -- -- 80
2019-11-07 10:00:00 4.6 14 Noroeste 27 Noroeste 0 -- -- 91
2019-11-07 09:00:00 2.9 10 Noroeste 19 Noroeste 0 -- -- 98
2019-11-07 08:00:00 3.3 6 Noroeste 24 Noroeste 0 -- -- 97
2019-11-07 07:00:00 4 13 Noroeste 26 Noroeste 0 -- -- 95
2019-11-07 06:00:00 4.3 5 Noroeste 15 Noroeste 0 -- -- 94
2019-11-07 05:00:00 5.6 6 Noroeste 24 Noroeste 0.4 -- -- 94
2019-11-07 04:00:00 7.2 17 Noroeste 34 Noroeste 0.4 -- -- 98
2019-11-07 03:00:00 7.7 16 Noroeste 33 Noroeste 0 -- -- 100
2019-11-07 02:00:00 8 21 Noroeste 41 Oeste 0 -- -- 100
2019-11-07 01:00:00 7.8 21 Noroeste 36 Oeste 0 -- -- 100
2019-11-07 00:00:00 7.6 21 Oeste 35 Noroeste 0 -- -- 100
2019-11-06 23:00:00 7.5 21 Oeste 36 Noroeste 0 -- -- 99
2019-11-06 22:00:00 7.5 20 Oeste 39 Oeste 0 -- -- 99
2019-11-06 21:00:00 7.4 21 Oeste 36 Oeste 0 -- -- 98
2019-11-06 20:00:00 7.5 18 Oeste 31 Oeste 0.4 -- -- 97
2019-11-06 19:00:00 8.1 12 Oeste 20 Oeste 0.2 -- -- 88
2019-11-06 18:00:00 8.5 11 Oeste 27 Noroeste 0 -- -- 82
2019-11-06 17:00:00 8.8 18 Oeste 32 Oeste 0 -- -- 79
2019-11-06 16:00:00 9.4 19 Noroeste 35 Noroeste 0 -- -- 74
2019-11-06 15:00:00 9.8 23 Noroeste 35 Oeste 0 -- -- 74
2019-11-06 14:00:00 8.5 18 Noroeste 28 Oeste 0 -- -- 81
2019-11-06 13:00:00 7.3 14 Noroeste 23 Noroeste 0 -- -- 90
2019-11-06 12:00:00 6 9 Noroeste 19 Noroeste 0 -- -- 94
2019-11-06 11:00:00 5.1 6 Noroeste 19 Noroeste 0 -- -- 96
2019-11-06 10:00:00 4.1 10 Noroeste 18 Noroeste 0 -- -- 95
2019-11-06 09:00:00 3.4 6 Noroeste 10 Noroeste 0 -- -- 98
2019-11-06 08:00:00 3.1 6 Noroeste 13 Noroeste 0 -- -- 98
2019-11-06 07:00:00 3.1 8 Noroeste 18 Noroeste 0 -- -- 99
2019-11-06 06:00:00 3.2 13 Noroeste 21 Noroeste 0 -- -- 100
2019-11-06 05:00:00 2.2 9 Oeste 15 Oeste 0 -- -- 99
2019-11-06 04:00:00 1.9 8 Noroeste 12 Noroeste 0 -- -- 99
2019-11-06 03:00:00 3 9 Noroeste 15 Oeste 0 -- -- 96
2019-11-06 02:00:00 2.4 9 Oeste 16 Noroeste 0 -- -- 97
2019-11-06 01:00:00 3 10 Oeste 20 Oeste 0 -- -- 94
2019-11-06 00:00:00 2.7 6 Oeste 15 Noroeste 0 -- -- 94
2019-11-05 23:00:00 3.3 12 Noroeste 19 Noroeste 0 -- -- 95
2019-11-05 22:00:00 3.3 8 Noroeste 13 Noroeste 0 -- -- 95
2019-11-05 21:00:00 3.8 5 Noroeste 9 Noroeste 0 -- -- 94
2019-11-05 20:00:00 5 4 Noroeste 22 Noroeste 0 -- -- 91
2019-11-05 19:00:00 5.3 8 Noroeste 22 Norte 0.2 -- -- 91
2019-11-05 18:00:00 6.3 10 Noroeste 32 Noroeste 0 -- -- 86
2019-11-05 17:00:00 6.8 10 Noroeste 22 Noroeste 0 -- -- 90
2019-11-05 16:00:00 6.2 8 Norte 39 Noroeste 1.6 -- -- 90
2019-11-05 15:00:00 8.8 18 Noroeste 44 Noroeste 0 -- -- 74
2019-11-05 14:00:00 8.5 21 Noroeste 49 Noroeste 0 -- -- 80
2019-11-05 13:00:00 8 10 Noroeste 25 Noroeste 0.4 -- -- 87
2019-11-05 12:00:00 6.4 15 Noroeste 39 Oeste 0.6 -- -- 87
2019-11-05 11:00:00 7.8 28 Noroeste 44 Oeste 0 -- -- 78
2019-11-05 10:00:00 6.3 23 Noroeste 37 Oeste 0 -- -- 88
2019-11-05 09:00:00 3.5 17 Oeste 26 Oeste 0 -- -- 95
2019-11-05 08:00:00 3.6 19 Oeste 33 Oeste 0 -- -- 94
2019-11-05 07:00:00 3.1 19 Oeste 38 Noroeste 0 -- -- 94
2019-11-05 06:00:00 3.3 20 Oeste 39 Noroeste 0 -- -- 94
2019-11-05 05:00:00 3 16 Oeste 33 Oeste 0 -- -- 94
2019-11-05 04:00:00 3.1 17 Oeste 30 Noroeste 0 -- -- 94
2019-11-05 03:00:00 3.8 19 Oeste 42 Oeste 0 -- -- 91
2019-11-05 02:00:00 4.2 24 Oeste 40 Noroeste 0 -- -- 92
2019-11-05 01:00:00 3.8 21 Oeste 36 Oeste 0 -- -- 92
2019-11-05 00:00:00 4.6 21 Oeste 37 Noroeste 0 -- -- 88
2019-11-04 23:00:00 5 20 Noroeste 34 Oeste 0 -- -- 83
2019-11-04 22:00:00 4.7 18 Oeste 29 Oeste 0 -- -- 84
2019-11-04 21:00:00 5.5 19 Oeste 33 Noroeste 0 -- -- 84
2019-11-04 20:00:00 6.5 20 Noroeste 44 Noroeste 0 -- -- 80
2019-11-04 19:00:00 7.1 23 Noroeste 48 Noroeste 0 -- -- 78
2019-11-04 18:00:00 8.2 25 Noroeste 47 Noroeste 0 -- -- 71
2019-11-04 17:00:00 10.3 24 Noroeste 43 Noroeste 0 -- -- 74
2019-11-04 16:00:00 11 23 Noroeste 43 Noroeste 0 -- -- 73
2019-11-04 15:00:00 11.8 30 Noroeste 52 Noroeste 0 -- -- 68
2019-11-04 14:00:00 11.2 24 Noroeste 49 Noroeste 0 -- -- 73
2019-11-04 13:00:00 10.1 23 Noroeste 44 Noroeste 0.2 -- -- 86
2019-11-04 12:00:00 9.8 19 Noroeste 48 Oeste 0.8 -- -- 93
2019-11-04 11:00:00 10.4 27 Oeste 45 Noroeste 0.8 -- -- 99
2019-11-04 10:00:00 9.7 32 Oeste 57 Oeste 0.2 -- -- 99
2019-11-04 09:00:00 9.4 32 Oeste 51 Oeste 0 -- -- 97
2019-11-04 08:00:00 9.5 33 Oeste 63 Oeste 0 -- -- 94
2019-11-04 07:00:00 9.5 33 Oeste 53 Oeste 0.2 -- -- 95
2019-11-04 06:00:00 9.3 28 Oeste 42 Oeste 1 -- -- 97
2019-11-04 05:00:00 9.4 28 Oeste 49 Oeste 0 -- -- 96
2019-11-04 04:00:00 9.8 33 Oeste 51 Oeste 0 -- -- 93
2019-11-04 03:00:00 10.1 32 Oeste 53 Oeste 0 -- -- 95
2019-11-04 02:00:00 10.3 33 Oeste 57 Oeste 0 -- -- 97
2019-11-04 01:00:00 10.1 33 Oeste 51 Oeste 0 -- -- 98
2019-11-04 00:00:00 9.8 27 Oeste 48 Noroeste 0 -- -- 99
2019-11-03 23:00:00 9.7 31 Oeste 47 Oeste 0 -- -- 99
2019-11-03 22:00:00 9.4 29 Oeste 44 Oeste 0 -- -- 99
2019-11-03 21:00:00 9.2 27 Oeste 39 Oeste 0.4 -- -- 99
2019-11-03 20:00:00 8.8 18 Oeste 35 Oeste 0 -- -- 97
2019-11-03 19:00:00 9.4 19 Oeste 48 Oeste 0.4 -- -- 90
2019-11-03 18:00:00 9.7 24 Noroeste 50 Noroeste 0 -- -- 84
2019-11-03 17:00:00 10.6 25 Oeste 46 Oeste 0 -- -- 74
2019-11-03 16:00:00 10.7 28 Oeste 54 Oeste 0 -- -- 71
2019-11-03 15:00:00 11.2 36 Noroeste 58 Oeste 0 -- -- 66
2019-11-03 14:00:00 10.8 32 Noroeste 55 Noroeste 0 -- -- 67
2019-11-03 13:00:00 9.2 33 Noroeste 51 Oeste 0 -- -- 73
2019-11-03 12:00:00 9.8 28 Noroeste 45 Noroeste 0 -- -- 65
2019-11-03 11:00:00 9.2 22 Noroeste 41 Noroeste 0 -- -- 58
2019-11-03 10:00:00 7.8 19 Noroeste 35 Noroeste 0 -- -- 66
2019-11-03 09:00:00 6.5 16 Noroeste 34 Noroeste 0 -- -- 81
2019-11-03 08:00:00 6.3 19 Noroeste 35 Noroeste 0 -- -- 84
2019-11-03 07:00:00 6.2 18 Noroeste 38 Noroeste 0 -- -- 85
2019-11-03 06:00:00 7.5 22 Noroeste 60 Noroeste 0 -- -- 75
2019-11-03 05:00:00 9.1 43 Noroeste 73 Noroeste 0 -- -- 67
2019-11-03 04:00:00 9 33 Oeste 63 Oeste 0.2 -- -- 98
2019-11-03 03:00:00 8.7 35 Oeste 58 Oeste 0 -- -- 96
2019-11-03 02:00:00 8.9 40 Oeste 62 Oeste 0 -- -- 92
2019-11-03 01:00:00 8.6 38 Oeste 56 Oeste 0 -- -- 91
2019-11-03 00:00:00 8.6 37 Oeste 62 Noroeste 0.2 -- -- 95
2019-11-02 23:00:00 9.1 38 Oeste 55 Noroeste 0 -- -- 91
2019-11-02 22:00:00 9.2 35 Oeste 54 Oeste 0 -- -- 91
2019-11-02 21:00:00 9.3 36 Oeste 59 Oeste 0 -- -- 91
2019-11-02 20:00:00 9.8 33 Oeste 49 Oeste 0 -- -- 84
2019-11-02 19:00:00 10.2 31 Oeste 48 Noroeste 0 -- -- 84
2019-11-02 18:00:00 10.4 19 Noroeste 41 Oeste 0 -- -- 85
2019-11-02 17:00:00 11.4 30 Oeste 42 Noroeste 0 -- -- 83
2019-11-02 16:00:00 11.8 10 Noroeste 26 Noroeste 0 -- -- 78
2019-11-02 15:00:00 12.1 16 Noroeste 28 Noroeste 0 -- -- 80
2019-11-02 14:00:00 12 19 Noroeste 34 Noroeste 0 -- -- 81
2019-11-02 13:00:00 12.1 20 Noroeste 35 Noroeste 0 -- -- 81
2019-11-02 12:00:00 12 20 Noroeste 36 Noroeste 0 -- -- 78
2019-11-02 11:00:00 11.6 17 Noroeste 43 Noroeste 0.2 -- -- 81
2019-11-02 10:00:00 11.7 18 Noroeste 37 Noroeste 0 -- -- 90
2019-11-02 09:00:00 11.8 21 Noroeste 41 Oeste 0 -- -- 100
2019-11-02 08:00:00 11.5 26 Oeste 37 Oeste 0 -- -- 100
2019-11-02 07:00:00 11.4 25 Oeste 40 Oeste 0 -- -- 99
2019-11-02 06:00:00 11.6 22 Noroeste 41 Oeste 0 -- -- 99
2019-11-02 05:00:00 11.7 23 Oeste 39 Oeste 0 -- -- 100
2019-11-02 04:00:00 11.9 24 Oeste 38 Oeste 0 -- -- 100
2019-11-02 03:00:00 11.9 19 Noroeste 36 Oeste 0.2 -- -- 99
2019-11-02 02:00:00 12 26 Oeste 40 Noroeste 0 -- -- 99
2019-11-02 01:00:00 11.9 20 Oeste 33 Oeste 0 -- -- 99
2019-11-02 00:00:00 12 19 Oeste 33 Oeste 0 -- -- 98
2019-11-01 23:00:00 12.2 22 Oeste 33 Oeste 0 -- -- 98
2019-11-01 22:00:00 12.5 12 Oeste 33 Noroeste 0 -- -- 97
2019-11-01 21:00:00 12.6 19 Noroeste 32 Noroeste 0 -- -- 97
2019-11-01 20:00:00 13.1 17 Oeste 30 Oeste 0 -- -- 94
2019-11-01 19:00:00 14.3 21 Noroeste 37 Noroeste 0 -- -- 80
2019-11-01 18:00:00 14.6 22 Noroeste 45 Noroeste 0 -- -- 81
2019-11-01 17:00:00 14.9 24 Noroeste 41 Noroeste 0.4 -- -- 97
2019-11-01 16:00:00 15.2 21 Noroeste 40 Oeste 0.8 -- -- 94
2019-11-01 15:00:00 16.2 30 Noroeste 51 Oeste 0 -- -- 89
2019-11-01 14:00:00 15.2 31 Oeste 48 Oeste 0.2 -- -- 97
2019-11-01 13:00:00 15 25 Oeste 38 Oeste 0.2 -- -- 98
2019-11-01 12:00:00 14.5 24 Oeste 39 Oeste 0.2 -- -- 100
2019-11-01 11:00:00 14.1 24 Oeste 36 Oeste 0 -- -- 100
2019-11-01 10:00:00 13.7 22 Oeste 39 Oeste 0 -- -- 100
2019-11-01 09:00:00 13.3 21 Oeste 32 Oeste 0 -- -- 100
2019-11-01 08:00:00 12.7 15 Oeste 29 Noroeste 0 -- -- 100
2019-11-01 07:00:00 12.9 19 Noroeste 32 Noroeste 0 -- -- 100
2019-11-01 06:00:00 13 14 Noroeste 35 Noroeste 0 -- -- 100
2019-11-01 05:00:00 13.1 19 Noroeste 33 Noroeste 0 -- -- 100
2019-11-01 04:00:00 13.2 18 Noroeste 31 Noroeste 0 -- -- 100
2019-11-01 03:00:00 13.3 18 Noroeste 31 Noroeste 0 -- -- 100
2019-11-01 02:00:00 13.1 10 Oeste 22 Oeste 0 -- -- 100
2019-11-01 01:00:00 13 15 Oeste 22 Noroeste 0 -- -- 100
2019-11-01 00:00:00 13.2 9 Noroeste 17 Noroeste 0 -- -- 100
2019-10-31 23:00:00 13.2 14 Noroeste 19 Noroeste 0 -- -- 98
2019-10-31 22:00:00 13.4 9 Noroeste 16 Noroeste 0 -- -- 97
2019-10-31 21:00:00 13.7 10 Noroeste 22 Noroeste 0 -- -- 95
2019-10-31 20:00:00 14.5 12 Oeste 19 Oeste 0 -- -- 87
2019-10-31 19:00:00 14.7 11 Oeste 18 Oeste 0 -- -- 84
2019-10-31 18:00:00 15.8 10 Oeste 18 Oeste 0 -- -- 78
2019-10-31 17:00:00 16.6 12 Oeste 22 Noroeste 0 -- -- 74
2019-10-31 16:00:00 17 16 Noroeste 30 Oeste 0 -- -- 71
2019-10-31 15:00:00 17 17 Noroeste 27 Noroeste 0 -- -- 68
2019-10-31 14:00:00 17.1 14 Noroeste 23 Oeste 0 -- -- 66
2019-10-31 13:00:00 15.7 12 Noroeste 21 Oeste 0 -- -- 73
2019-10-31 12:00:00 15.3 9 Noroeste 16 Oeste 0 -- -- 76
2019-10-31 11:00:00 13.1 9 Noroeste 15 Noroeste 0 -- -- 93
2019-10-31 10:00:00 11.1 9 Noroeste 14 Noroeste 0 -- -- 100
2019-10-31 09:00:00 10.6 5 Noroeste 15 Noroeste 0 -- -- 100
2019-10-31 08:00:00 10.6 10 Noroeste 19 Noroeste 0 -- -- 100
2019-10-31 07:00:00 10.6 10 Noroeste 17 Noroeste 0 -- -- 100
2019-10-31 06:00:00 10.8 10 Noroeste 16 Noroeste 0 -- -- 100
2019-10-31 05:00:00 11.2 5 Noroeste 14 Noroeste 0 -- -- 100
2019-10-31 04:00:00 11.5 7 Noroeste 11 Noroeste 0 -- -- 100
2019-10-31 03:00:00 11.5 7 Noroeste 17 Noroeste 0 -- -- 99
2019-10-31 02:00:00 12.1 10 Noroeste 21 Noroeste 0 -- -- 99
2019-10-31 01:00:00 12.3 8 Noroeste 22 Noroeste 0 -- -- 100
2019-10-31 00:00:00 12.4 13 Noroeste 27 Noroeste 0 -- -- 100
2019-10-30 23:00:00 12.6 15 Noroeste 30 Oeste 0 -- -- 99
2019-10-30 22:00:00 12.7 15 Oeste 30 Oeste 0 -- -- 99
2019-10-30 21:00:00 12.8 16 Oeste 26 Oeste 0 -- -- 99
2019-10-30 20:00:00 12.8 17 Oeste 24 Oeste 0.4 -- -- 99
2019-10-30 19:00:00 12.8 13 Oeste 20 Oeste 0.6 -- -- 99
2019-10-30 18:00:00 13 14 Oeste 26 Oeste 0 -- -- 96
2019-10-30 17:00:00 13.5 16 Oeste 26 Oeste 0 -- -- 93
2019-10-30 16:00:00 13.3 13 Oeste 23 Oeste 0 -- -- 93
2019-10-30 15:00:00 13.5 16 Oeste 26 Oeste 0 -- -- 91
2019-10-30 14:00:00 13.1 14 Oeste 22 Oeste 0 -- -- 96
2019-10-30 13:00:00 12.6 14 Oeste 24 Oeste 0 -- -- 96
2019-10-30 12:00:00 12.6 12 Noroeste 19 Noroeste 0 -- -- 96
2019-10-30 11:00:00 12.1 13 Oeste 22 Noroeste 0 -- -- 98
2019-10-30 10:00:00 12 12 Noroeste 19 Noroeste 0 -- -- 97
2019-10-30 09:00:00 11.7 10 Noroeste 17 Noroeste 0 -- -- 99
2019-10-30 08:00:00 11.6 9 Noroeste 15 Noroeste 0 -- -- 100
2019-10-30 07:00:00 11.5 9 Oeste 16 Oeste 0 -- -- 100
2019-10-30 06:00:00 11.6 9 Oeste 15 Oeste 0 -- -- 99
2019-10-30 05:00:00 11.7 8 Noroeste 18 Oeste 0 -- -- 99
2019-10-30 04:00:00 11.7 6 Oeste 15 Oeste 0 -- -- 98
2019-10-30 03:00:00 11.7 11 Noroeste 18 Oeste 0 -- -- 96
2019-10-30 02:00:00 11.8 6 Oeste 15 Oeste 0 -- -- 95
2019-10-30 01:00:00 11.3 6 Noroeste 11 Noroeste 0 -- -- 96
2019-10-30 00:00:00 11 7 Oeste 12 Noroeste 0 -- -- 93
2019-10-29 23:00:00 11.7 8 Noroeste 13 Noroeste 0 -- -- 88
2019-10-29 22:00:00 10.8 7 Noroeste 12 Noroeste 0 -- -- 88
2019-10-29 21:00:00 10.4 8 Oeste 11 Oeste 0 -- -- 89
2019-10-29 20:00:00 10.2 5 Oeste 9 Sudoeste 0 -- -- 87
2019-10-29 19:00:00 11.5 5 Oeste 9 Oeste 0 -- -- 83
2019-10-29 18:00:00 14.5 5 Oeste 20 Oeste 0 -- -- 72
2019-10-29 17:00:00 16.4 10 Oeste 18 Oeste 0 -- -- 63
2019-10-29 16:00:00 16.5 9 Oeste 24 Oeste 0 -- -- 59
2019-10-29 15:00:00 16.8 15 Oeste 26 Oeste 0 -- -- 59
2019-10-29 14:00:00 14.8 11 Oeste 18 Oeste 0 -- -- 71
2019-10-29 13:00:00 14.5 10 Oeste 21 Oeste 0 -- -- 76
2019-10-29 12:00:00 14.8 13 Oeste 19 Oeste 0 -- -- 77
2019-10-29 11:00:00 12.9 10 Noroeste 16 Oeste 0 -- -- 90
2019-10-29 10:00:00 12.9 8 Oeste 14 Oeste 0 -- -- 91
2019-10-29 09:00:00 12.2 8 Oeste 13 Oeste 0 -- -- 98
2019-10-29 08:00:00 11.7 8 Oeste 13 Noroeste 0 -- -- 99
2019-10-29 07:00:00 11.8 6 Oeste 12 Oeste 0 -- -- 99
2019-10-29 06:00:00 11.7 4 Noroeste 11 Noroeste 0 -- -- 99
2019-10-29 05:00:00 11.3 0 Calma 9 Noroeste 0 -- -- 99
2019-10-29 04:00:00 11.8 5 Noroeste 11 Noroeste 0 -- -- 99
2019-10-29 03:00:00 11.5 5 Noroeste 12 Noroeste 0 -- -- 99
2019-10-29 02:00:00 10.5 7 Noroeste 11 Noroeste 0 -- -- 99
2019-10-29 01:00:00 10.5 7 Noroeste 10 Oeste 0 -- -- 97
2019-10-29 00:00:00 11.1 5 Noroeste 11 Noroeste 0 -- -- 94
2019-10-28 23:00:00 11.9 7 Noroeste 12 Noroeste 0 -- -- 93
2019-10-28 22:00:00 12.4 4 Noroeste 9 Oeste 0 -- -- 90
2019-10-28 21:00:00 11.8 8 Oeste 10 Oeste 0 -- -- 91
2019-10-28 20:00:00 12.4 6 Nordeste 9 Este 0 -- -- 85
2019-10-28 19:00:00 13.9 4 Oeste 12 Sudoeste 0 -- -- 79
2019-10-28 18:00:00 16.4 8 Oeste 21 Oeste 0 -- -- 70
2019-10-28 17:00:00 17.7 12 Oeste 23 Oeste 0 -- -- 64
2019-10-28 16:00:00 17.3 13 Oeste 24 Noroeste 0 -- -- 63
2019-10-28 15:00:00 18.4 17 Oeste 30 Oeste 0 -- -- 53
2019-10-28 14:00:00 17.7 13 Oeste 26 Noroeste 0 -- -- 60
2019-10-28 13:00:00 17.4 15 Noroeste 27 Oeste 0 -- -- 58
2019-10-28 12:00:00 17.2 14 Oeste 21 Oeste 0 -- -- 63
2019-10-28 11:00:00 15.8 6 Oeste 10 Noroeste 0 -- -- 68
2019-10-28 10:00:00 13.7 2 Sudeste 6 Sur 0 -- -- 77
2019-10-28 09:00:00 8.5 2 Noroeste 7 Noroeste 0 -- -- 97
2019-10-28 08:00:00 7.9 0 Calma 5 Sur 0 -- -- 94
2019-10-28 07:00:00 9.5 0 Calma 5 Norte 0 -- -- 94
2019-10-28 06:00:00 10 3 Norte 7 Norte 0.2 -- -- 94
2019-10-28 05:00:00 10.3 0 Calma 7 Noroeste 0 -- -- 91
2019-10-28 04:00:00 11.2 0 Calma 11 Nordeste 0 -- -- 85
2019-10-28 03:00:00 10.6 4 Nordeste 9 Nordeste 0 -- -- 91
2019-10-28 02:00:00 11.6 4 Norte 9 Norte 0 -- -- 87
2019-10-28 01:00:00 10.2 4 Norte 8 Norte 0 -- -- 92
2019-10-28 00:00:00 9.6 0 Calma 2 Noroeste 0 -- -- 95
2019-10-27 23:00:00 9.6 0 Calma 5 Nordeste 0 -- -- 95
2019-10-27 22:00:00 10.3 0 Calma 5 Nordeste 0 -- -- 91
2019-10-27 21:00:00 10.8 2 Noroeste 3 Oeste 0 -- -- 91
2019-10-27 20:00:00 11.5 2 Norte 9 Oeste 0 -- -- 89
2019-10-27 19:00:00 12 4 Noroeste 6 Oeste 0 -- -- 87
2019-10-27 18:00:00 14.1 2 Noroeste 10 Oeste 0 -- -- 79
2019-10-27 17:00:00 15.4 6 Noroeste 10 Noroeste 0 -- -- 71
2019-10-27 16:00:00 16.2 3 Noroeste 9 Oeste 0 -- -- 65
2019-10-27 15:00:00 16.3 5 Noroeste 15 Oeste 0 -- -- 64
2019-10-27 14:00:00 16.2 9 Noroeste 16 Oeste 0 -- -- 63
2019-10-27 13:00:00 15.4 3 Noroeste 12 Oeste 0 -- -- 69
2019-10-27 12:00:00 14.2 5 Noroeste 11 Oeste 0 -- -- 77
2019-10-27 11:00:00 12.8 5 Sudeste 8 Sudeste 0 -- -- 85
2019-10-27 10:00:00 11.4 0 Calma 4 Este 0 -- -- 85
2019-10-27 09:00:00 8.5 0 Calma 8 Este 0 -- -- 98
2019-10-27 08:00:00 7 0 Calma 5 Nordeste 0 -- -- 97
2019-10-27 07:00:00 7.4 3 Este 5 Nordeste 0 -- -- 96
2019-10-27 06:00:00 7.6 0 Calma 3 Este 0 -- -- 96
2019-10-27 05:00:00 7.4 0 Calma 5 Nordeste 0 -- -- 94
2019-10-27 04:00:00 7.5 2 Noroeste 5 Noroeste 0 -- -- 94
2019-10-27 03:00:00 8.4 4 Norte 7 Norte 0 -- -- 92
2019-10-27 02:00:00 10 4 Norte 9 Norte 0 -- -- 86
2019-10-27 01:00:00 10.1 6 Norte 10 Norte 0 -- -- 84
2019-10-27 00:00:00 9.8 7 Norte 10 Norte 0 -- -- 86
2019-10-26 23:00:00 9.7 5 Norte 10 Norte 0 -- -- 85
2019-10-26 22:00:00 10.6 7 Norte 11 Norte 0 -- -- 84
2019-10-26 21:00:00 10.6 5 Noroeste 11 Noroeste 0 -- -- 82
2019-10-26 20:00:00 11.4 5 Norte 8 Noroeste 0 -- -- 80
2019-10-26 19:00:00 15.6 8 Oeste 19 Oeste 0 -- -- 63
2019-10-26 18:00:00 17.9 9 Oeste 19 Noroeste 0 -- -- 57
2019-10-26 17:00:00 18.1 10 Oeste 24 Oeste 0 -- -- 55
2019-10-26 16:00:00 18 14 Oeste 26 Oeste 0 -- -- 55
2019-10-26 15:00:00 17.7 13 Oeste 21 Oeste 0 -- -- 56
2019-10-26 14:00:00 17.1 10 Oeste 17 Sudoeste 0 -- -- 62
2019-10-26 13:00:00 16 3 Sudeste 10 Sudoeste 0 -- -- 71
2019-10-26 12:00:00 14.4 4 Sur 9 Sur 0 -- -- 78
2019-10-26 11:00:00 11.8 3 Este 5 Este 0 -- -- 88
2019-10-26 10:00:00 7.8 0 Calma 3 Noroeste 0 -- -- 100
2019-10-26 09:00:00 4.4 0 Calma 4 Sudeste 0 -- -- 99
2019-10-26 08:00:00 4.6 2 Nordeste 8 Nordeste 0 -- -- 99
2019-10-26 07:00:00 5.1 0 Calma 6 Norte 0 -- -- 99
2019-10-26 06:00:00 4.9 3 Norte 6 Norte 0 -- -- 97
2019-10-26 05:00:00 6.3 4 Norte 9 Norte 0 -- -- 95
2019-10-26 04:00:00 7.3 5 Norte 9 Norte 0 -- -- 93
2019-10-26 03:00:00 7 5 Norte 10 Norte 0 -- -- 95
2019-10-26 02:00:00 7.7 7 Norte 11 Norte 0 -- -- 94
2019-10-26 01:00:00 6.4 0 Calma 8 Norte 0 -- -- 95
2019-10-26 00:00:00 6 2 Nordeste 8 Este 0 -- -- 97
2019-10-25 23:00:00 6.5 5 Norte 7 Norte 0 -- -- 97
2019-10-25 22:00:00 6.8 3 Norte 8 Norte 0 -- -- 96
2019-10-25 21:00:00 7.5 4 Noroeste 6 Oeste 0 -- -- 93
2019-10-25 20:00:00 9.8 4 Oeste 8 Sudoeste 0 -- -- 88
2019-10-25 19:00:00 14.1 3 Oeste 10 Oeste 0 -- -- 74
2019-10-25 18:00:00 15 7 Oeste 15 Noroeste 0 -- -- 67
2019-10-25 17:00:00 14.7 7 Noroeste 17 Oeste 0 -- -- 68
2019-10-25 16:00:00 14.1 9 Oeste 19 Oeste 0 -- -- 70
2019-10-25 15:00:00 13.3 11 Noroeste 19 Oeste 0 -- -- 73
2019-10-25 14:00:00 12 9 Noroeste 16 Noroeste 0 -- -- 79
2019-10-25 13:00:00 12.4 9 Oeste 18 Oeste 0 -- -- 78
2019-10-25 12:00:00 10.4 4 Noroeste 9 Norte 0 -- -- 92
2019-10-25 11:00:00 9.5 0 Calma 6 Noroeste 0 -- -- 100
2019-10-25 10:00:00 8.7 4 Noroeste 10 Noroeste 0 -- -- 100
2019-10-25 09:00:00 8.3 7 Noroeste 14 Noroeste 0 -- -- 100
2019-10-25 08:00:00 8.4 4 Noroeste 10 Noroeste 0 -- -- 100
2019-10-25 07:00:00 8.5 0 Calma 6 Oeste 0 -- -- 100
2019-10-25 06:00:00 8.5 0 Calma 5 Oeste 0.2 -- -- 100
2019-10-25 05:00:00 8.4 3 Sudoeste 5 Sudoeste 0 -- -- 100
2019-10-25 04:00:00 8.6 0 Calma 4 Oeste 0 -- -- 100
2019-10-25 03:00:00 8.5 5 Noroeste 10 Noroeste 0 -- -- 100
2019-10-25 02:00:00 7.9 5 Noroeste 9 Noroeste 0 -- -- 100
2019-10-25 01:00:00 8.5 3 Noroeste 9 Noroeste 0 -- -- 99
2019-10-25 00:00:00 9.4 5 Noroeste 13 Noroeste 0 -- -- 98
2019-10-24 23:00:00 9.6 5 Oeste 15 Oeste 0 -- -- 97
2019-10-24 22:00:00 10.5 9 Noroeste 21 Oeste 0 -- -- 95
2019-10-24 21:00:00 11.1 8 Oeste 17 Oeste 0 -- -- 94
2019-10-24 20:00:00 11.8 9 Oeste 14 Noroeste 0 -- -- 88
2019-10-24 19:00:00 11.7 5 Oeste 16 Oeste 0 -- -- 90
2019-10-24 18:00:00 11.7 13 Oeste 22 Noroeste 0 -- -- 88
2019-10-24 17:00:00 11.2 12 Oeste 24 Oeste 0 -- -- 90
2019-10-24 16:00:00 10.6 15 Oeste 24 Oeste 0 -- -- 86
2019-10-24 15:00:00 10.1 13 Oeste 25 Oeste 0 -- -- 78
2019-10-24 14:00:00 9.6 15 Oeste 24 Oeste 0 -- -- 86
2019-10-24 13:00:00 8.8 16 Oeste 27 Oeste 0 -- -- 90
2019-10-24 12:00:00 7.6 18 Oeste 27 Oeste 0 -- -- 92
2019-10-24 11:00:00 6.3 10 Oeste 18 Oeste 0 -- -- 93
2019-10-24 10:00:00 5.6 5 Noroeste 21 Noroeste 0 -- -- 96
2019-10-24 09:00:00 5.3 12 Noroeste 24 Noroeste 0 -- -- 96
2019-10-24 08:00:00 4.9 12 Noroeste 19 Noroeste 0 -- -- 97
2019-10-24 07:00:00 4.9 8 Noroeste 15 Noroeste 0 -- -- 95
2019-10-24 06:00:00 5 6 Noroeste 17 Oeste 0 -- -- 95
2019-10-24 05:00:00 5.1 10 Noroeste 17 Noroeste 0 -- -- 97
2019-10-24 04:00:00 5.3 10 Noroeste 18 Noroeste 0 -- -- 98
2019-10-24 03:00:00 5.1 7 Noroeste 12 Noroeste 0.2 -- -- 99
2019-10-24 02:00:00 4.9 6 Noroeste 12 Noroeste 1.2 -- -- 98
2019-10-24 01:00:00 4.7 6 Noroeste 17 Norte 1.6 -- -- 96
2019-10-24 00:00:00 4.9 6 Norte 22 Norte 2.4 -- -- 96
2019-10-23 23:00:00 5.3 10 Nordeste 18 Nordeste 2.4 -- -- 95
2019-10-23 22:00:00 5.6 8 Norte 24 Norte 1.8 -- -- 95
2019-10-23 21:00:00 6.1 6 Norte 23 Norte 0.8 -- -- 94
2019-10-23 20:00:00 7.3 10 Norte 26 Norte 0 -- -- 84
2019-10-23 19:00:00 7.9 7 Norte 22 Norte 0 -- -- 82
2019-10-23 18:00:00 8.5 8 Norte 17 Nordeste 0 -- -- 81
2019-10-23 17:00:00 8.7 8 Norte 27 Norte 0 -- -- 85
2019-10-23 16:00:00 8.7 8 Norte 24 Norte 0 -- -- 87
2019-10-23 15:00:00 8.2 9 Norte 35 Norte 0.2 -- -- 91
2019-10-23 14:00:00 8 14 Norte 36 Nordeste 0 -- -- 90
2019-10-23 13:00:00 7.7 18 Norte 30 Norte 4.2 -- -- 97
2019-10-23 12:00:00 7.9 8 Noroeste 15 Noroeste 1.2 -- -- 97
2019-10-23 11:00:00 8 3 Norte 6 Noroeste 0.6 -- -- 96
2019-10-23 10:00:00 7.7 5 Noroeste 9 Sur 0.8 -- -- 96
2019-10-23 09:00:00 8.4 10 Sudeste 26 Nordeste 0.4 -- -- 88
2019-10-23 08:00:00 8.9 12 Nordeste 33 Norte 0 -- -- 80
2019-10-23 07:00:00 8.5 11 Nordeste 23 Nordeste 0 -- -- 82
2019-10-23 06:00:00 7.8 5 Norte 13 Norte 0 -- -- 89
2019-10-23 05:00:00 7.6 7 Norte 14 Norte 0 -- -- 90
2019-10-23 04:00:00 6.9 7 Norte 18 Nordeste 0.2 -- -- 95
2019-10-23 03:00:00 6.1 5 Noroeste 10 Noroeste 0.2 -- -- 97
2019-10-23 02:00:00 6 6 Noroeste 14 Noroeste 0.2 -- -- 96
2019-10-23 01:00:00 6 7 Norte 15 Norte 0.6 -- -- 95
2019-10-23 00:00:00 6 5 Noroeste 10 Noroeste 0.2 -- -- 96
2019-10-22 23:00:00 6 4 Noroeste 6 Noroeste 0.2 -- -- 95
2019-10-22 22:00:00 6.4 0 Calma 12 Norte 0 -- -- 91
2019-10-22 21:00:00 6.7 6 Norte 14 Norte 0 -- -- 88
2019-10-22 20:00:00 7.1 6 Norte 18 Nordeste 0 -- -- 89
2019-10-22 19:00:00 8.1 7 Nordeste 25 Este 0 -- -- 80
2019-10-22 18:00:00 8.4 21 Este 32 Este 0 -- -- 77
2019-10-22 17:00:00 8.6 20 Este 35 Este 0 -- -- 79
2019-10-22 16:00:00 10 22 Este 40 Este 0 -- -- 72
2019-10-22 15:00:00 10.4 24 Este 41 Este 0 -- -- 70
2019-10-22 14:00:00 9.7 24 Este 40 Este 0 -- -- 71
2019-10-22 13:00:00 9.3 25 Este 39 Este 0 -- -- 69
2019-10-22 12:00:00 7.9 17 Este 27 Este 0 -- -- 78
2019-10-22 11:00:00 6.6 17 Este 22 Este 0 -- -- 84
2019-10-22 10:00:00 4.5 10 Este 19 Este 0 -- -- 93
2019-10-22 09:00:00 3.9 14 Este 21 Este 0 -- -- 94
2019-10-22 08:00:00 3.8 12 Este 18 Este 0 -- -- 98
2019-10-22 07:00:00 4 14 Este 22 Este 0 -- -- 98
2019-10-22 06:00:00 4.7 12 Este 21 Este 0 -- -- 96
2019-10-22 05:00:00 3.4 7 Este 11 Este 0.2 -- -- 98
2019-10-22 04:00:00 3.2 6 Este 11 Nordeste 0 -- -- 97
2019-10-22 03:00:00 4.1 9 Nordeste 14 Este 0 -- -- 98
2019-10-22 02:00:00 4.3 9 Este 15 Este 0 -- -- 97
2019-10-22 01:00:00 5 9 Este 18 Sudeste 0 -- -- 96
2019-10-22 00:00:00 5.3 9 Este 13 Este 0 -- -- 96
2019-10-21 23:00:00 5.1 10 Este 15 Este 0 -- -- 95
2019-10-21 22:00:00 4 7 Este 10 Este 0 -- -- 95
2019-10-21 21:00:00 3.9 0 Calma 3 Nordeste 0 -- -- 94
2019-10-21 20:00:00 5.8 3 Este 8 Sudeste 0 -- -- 90
2019-10-21 19:00:00 8.5 6 Sudeste 12 Sudeste 0 -- -- 75
2019-10-21 18:00:00 9.6 7 Sudeste 14 Este 0 -- -- 71
2019-10-21 17:00:00 8.6 9 Sudeste 18 Sudeste 0 -- -- 77
2019-10-21 16:00:00 8.8 10 Este 16 Este 0 -- -- 76
2019-10-21 15:00:00 7.7 7 Sudeste 14 Sudeste 0 -- -- 82
2019-10-21 14:00:00 7.2 10 Sudeste 15 Sudeste 0 -- -- 83
2019-10-21 13:00:00 7 10 Sudeste 16 Este 0 -- -- 88
2019-10-21 12:00:00 5.5 8 Sudeste 15 Este 0 -- -- 92
2019-10-21 11:00:00 4.8 10 Este 14 Este 0 -- -- 96
2019-10-21 10:00:00 3.7 7 Este 13 Este 0 -- -- 100
2019-10-21 09:00:00 2.1 5 Este 8 Este 0 -- -- 100
2019-10-21 08:00:00 1 3 Nordeste 8 Nordeste 0 -- -- 99
2019-10-21 07:00:00 1.6 6 Nordeste 11 Nordeste 0 -- -- 98
2019-10-21 06:00:00 2.2 8 Nordeste 12 Nordeste 0 -- -- 99
2019-10-21 05:00:00 2.3 8 Nordeste 13 Nordeste 0 -- -- 99
2019-10-21 04:00:00 1.9 8 Nordeste 12 Nordeste 0 -- -- 99
2019-10-21 03:00:00 2.8 7 Nordeste 13 Nordeste 0 -- -- 99
2019-10-21 02:00:00 1.7 0 Calma 8 Este 0 -- -- 97
2019-10-21 01:00:00 2.2 0 Calma 10 Norte 0 -- -- 96
2019-10-21 00:00:00 3.4 6 Norte 10 Norte 0 -- -- 93
2019-10-20 23:00:00 4.2 4 Norte 11 Nordeste 0 -- -- 91
2019-10-20 22:00:00 4.5 4 Norte 10 Norte 0 -- -- 92
2019-10-20 21:00:00 5.1 5 Norte 10 Norte 0 -- -- 93
2019-10-20 20:00:00 5.8 3 Norte 8 Nordeste 0 -- -- 93
2019-10-20 19:00:00 7.3 0 Calma 7 Noroeste 0 -- -- 91
2019-10-20 18:00:00 7.7 4 Noroeste 14 Noroeste 0 -- -- 88
2019-10-20 17:00:00 7.5 7 Noroeste 15 Noroeste 0 -- -- 89
2019-10-20 16:00:00 7.6 4 Noroeste 13 Noroeste 0 -- -- 91
2019-10-20 15:00:00 7.2 8 Noroeste 17 Noroeste 0 -- -- 93
2019-10-20 14:00:00 6.1 11 Oeste 17 Noroeste 0.4 -- -- 96
2019-10-20 13:00:00 5.5 9 Noroeste 15 Oeste 0.8 -- -- 97
2019-10-20 12:00:00 4.9 5 Noroeste 12 Noroeste 1.2 -- -- 97
2019-10-20 11:00:00 4.3 6 Norte 25 Norte 1.8 -- -- 96
2019-10-20 10:00:00 3.8 6 Norte 27 Norte 1.2 -- -- 96
2019-10-20 09:00:00 4.1 9 Norte 23 Norte 1.6 -- -- 96
2019-10-20 08:00:00 4.4 9 Norte 25 Nordeste 0.4 -- -- 95
2019-10-20 07:00:00 5.4 8 Norte 23 Nordeste 0 -- -- 94
2019-10-20 06:00:00 5.9 14 Nordeste 24 Nordeste 0 -- -- 98
2019-10-20 05:00:00 6 4 Noroeste 16 Nordeste 0.2 -- -- 98
2019-10-20 04:00:00 6.3 11 Este 16 Nordeste 4.6 -- -- 98
2019-10-20 03:00:00 6.3 9 Noroeste 22 Nordeste 0.2 -- -- 96
2019-10-20 02:00:00 7.9 18 Nordeste 25 Nordeste 0.4 -- -- 94
2019-10-20 01:00:00 8.1 10 Este 22 Este 0.6 -- -- 97
2019-10-20 00:00:00 8.3 19 Nordeste 31 Nordeste 0.8 -- -- 98
2019-10-19 23:00:00 8.2 11 Este 17 Este 0.2 -- -- 99
2019-10-19 22:00:00 8.4 8 Este 14 Este 1.2 -- -- 99
2019-10-19 21:00:00 8.6 4 Este 6 Este 0.4 -- -- 98
2019-10-19 20:00:00 8.5 3 Noroeste 22 Noroeste 0.6 -- -- 98
2019-10-19 19:00:00 9.2 14 Norte 36 Oeste 2.6 -- -- 96
2019-10-19 18:00:00 10.3 12 Sudoeste 18 Sudoeste 1 -- -- 99
2019-10-19 17:00:00 10.1 10 Sudoeste 27 Oeste 0.6 -- -- 98
2019-10-19 16:00:00 10.1 14 Oeste 24 Sudoeste 2 -- -- 98
2019-10-19 15:00:00 10.1 14 Sudoeste 28 Sudoeste 0 -- -- 96
2019-10-19 14:00:00 9.7 12 Oeste 30 Sudoeste 1.2 -- -- 99
2019-10-19 13:00:00 9 19 Oeste 36 Oeste 2.8 -- -- 99
2019-10-19 12:00:00 8.8 16 Oeste 30 Oeste 0.8 -- -- 99
2019-10-19 11:00:00 8.6 17 Oeste 31 Oeste 1.8 -- -- 99
2019-10-19 10:00:00 8.5 18 Oeste 33 Oeste 1 -- -- 99
2019-10-19 09:00:00 8.6 18 Oeste 30 Oeste 0.2 -- -- 99
2019-10-19 08:00:00 8.6 21 Oeste 32 Oeste 0 -- -- 98
2019-10-19 07:00:00 8.8 14 Oeste 33 Oeste 0.2 -- -- 98
2019-10-19 06:00:00 8.9 16 Oeste 27 Oeste 0 -- -- 97
2019-10-19 05:00:00 8.9 14 Oeste 32 Oeste 0.2 -- -- 97
2019-10-19 04:00:00 9.1 15 Oeste 28 Oeste 0.8 -- -- 97
2019-10-19 03:00:00 9.2 14 Oeste 22 Oeste 0.6 -- -- 96
2019-10-19 02:00:00 9.5 10 Oeste 20 Oeste 0 -- -- 92
2019-10-19 01:00:00 9.8 10 Oeste 18 Oeste 0 -- -- 90
2019-10-19 00:00:00 9.7 7 Noroeste 22 Oeste 0 -- -- 89
2019-10-18 23:00:00 10.1 14 Oeste 23 Oeste 0 -- -- 87
2019-10-18 22:00:00 10.8 15 Oeste 29 Oeste 0 -- -- 82
2019-10-18 21:00:00 10.7 13 Oeste 19 Oeste 0 -- -- 82
2019-10-18 20:00:00 10.7 0 Calma 7 Noroeste 0 -- -- 84
2019-10-18 19:00:00 11.5 4 Noroeste 15 Noroeste 0 -- -- 79
2019-10-18 18:00:00 12.3 8 Noroeste 16 Oeste 0 -- -- 74
2019-10-18 17:00:00 12.6 9 Oeste 25 Oeste 0 -- -- 70
2019-10-18 16:00:00 12.7 16 Noroeste 29 Oeste 0 -- -- 68
2019-10-18 15:00:00 12.7 22 Noroeste 36 Noroeste 0 -- -- 68
2019-10-18 14:00:00 12.6 20 Noroeste 35 Noroeste 0 -- -- 71
2019-10-18 13:00:00 11.8 19 Oeste 30 Noroeste 0 -- -- 74
2019-10-18 12:00:00 10.5 17 Noroeste 27 Noroeste 0 -- -- 85
2019-10-18 11:00:00 9.3 13 Noroeste 20 Noroeste 0 -- -- 93
2019-10-18 10:00:00 8.6 12 Noroeste 19 Noroeste 0 -- -- 95
2019-10-18 09:00:00 8.4 9 Noroeste 13 Noroeste 0 -- -- 95
2019-10-18 08:00:00 8.6 7 Noroeste 13 Noroeste 0 -- -- 94
2019-10-18 07:00:00 9.2 9 Noroeste 19 Noroeste 0 -- -- 93
2019-10-18 06:00:00 9.9 10 Noroeste 16 Oeste 0 -- -- 95
2019-10-18 05:00:00 10.8 8 Oeste 18 Noroeste 0 -- -- 97
2019-10-18 04:00:00 11.8 9 Noroeste 25 Noroeste 0 -- -- 98
2019-10-18 03:00:00 12.5 13 Noroeste 25 Oeste 0 -- -- 98
2019-10-18 02:00:00 12.8 15 Oeste 23 Oeste 0 -- -- 98
2019-10-18 01:00:00 12.8 11 Oeste 17 Oeste 1 -- -- 98
2019-10-18 00:00:00 12.6 9 Oeste 19 Oeste 0.4 -- -- 95
2019-10-17 23:00:00 12 7 Oeste 16 Sudoeste 0 -- -- 94
2019-10-17 22:00:00 12.4 9 Oeste 17 Oeste 0 -- -- 86
2019-10-17 21:00:00 12.5 3 Oeste 21 Oeste 0 -- -- 84
2019-10-17 20:00:00 13.7 11 Oeste 34 Oeste 0 -- -- 80
2019-10-17 19:00:00 15.2 20 Oeste 42 Oeste 0 -- -- 72
2019-10-17 18:00:00 16.6 26 Oeste 41 Oeste 0 -- -- 63
2019-10-17 17:00:00 17.4 26 Oeste 40 Oeste 0 -- -- 55
2019-10-17 16:00:00 16.4 22 Oeste 36 Oeste 0 -- -- 64
2019-10-17 15:00:00 15.9 19 Oeste 27 Oeste 0 -- -- 72
2019-10-17 14:00:00 14.5 13 Noroeste 27 Noroeste 0 -- -- 84
2019-10-17 13:00:00 12.7 16 Noroeste 26 Oeste 0.2 -- -- 99
2019-10-17 12:00:00 11.5 14 Noroeste 26 Noroeste 0 -- -- 100
2019-10-17 11:00:00 11.1 17 Oeste 28 Oeste 0.2 -- -- 100
2019-10-17 10:00:00 10.8 15 Oeste 24 Oeste 0 -- -- 100
2019-10-17 09:00:00 10.5 15 Oeste 26 Oeste 0 -- -- 100
2019-10-17 08:00:00 10.2 16 Oeste 27 Oeste 0 -- -- 100
2019-10-17 07:00:00 10 14 Oeste 28 Oeste 0.2 -- -- 100
2019-10-17 06:00:00 9.9 14 Oeste 25 Oeste 0.4 -- -- 100
2019-10-17 05:00:00 9.9 11 Oeste 23 Oeste 0.8 -- -- 99
2019-10-17 04:00:00 9.9 11 Oeste 23 Oeste 1.8 -- -- 99
2019-10-17 03:00:00 10 14 Oeste 30 Oeste 3 -- -- 98
2019-10-17 02:00:00 10.1 22 Oeste 31 Oeste 2.4 -- -- 98
2019-10-17 01:00:00 10.2 16 Oeste 32 Oeste 2 -- -- 98
2019-10-17 00:00:00 10.5 15 Oeste 26 Oeste 0.8 -- -- 98
2019-10-16 23:00:00 10.4 10 Oeste 18 Oeste 0.6 -- -- 97
2019-10-16 22:00:00 10.4 5 Oeste 14 Oeste 1.6 -- -- 97
2019-10-16 21:00:00 10.5 9 Oeste 23 Oeste 1 -- -- 95
2019-10-16 20:00:00 11.3 8 Oeste 19 Oeste 0.2 -- -- 88
2019-10-16 19:00:00 11.6 12 Oeste 23 Oeste 0 -- -- 87
2019-10-16 18:00:00 12.3 14 Oeste 28 Oeste 0 -- -- 81
2019-10-16 17:00:00 11.7 13 Oeste 29 Oeste 0 -- -- 84
2019-10-16 16:00:00 11.7 14 Oeste 28 Oeste 0 -- -- 85
2019-10-16 15:00:00 10.9 14 Oeste 21 Oeste 0 -- -- 87
2019-10-16 14:00:00 10.1 13 Oeste 32 Oeste 0 -- -- 90
2019-10-16 13:00:00 9.7 22 Oeste 37 Oeste 0 -- -- 91
2019-10-16 12:00:00 8.7 17 Oeste 27 Oeste 0 -- -- 95
2019-10-16 11:00:00 8.4 14 Oeste 29 Oeste 0 -- -- 96
2019-10-16 10:00:00 8 17 Oeste 30 Oeste 0 -- -- 98
2019-10-16 09:00:00 7.8 19 Oeste 32 Oeste 0 -- -- 98
2019-10-16 08:00:00 7.7 15 Oeste 28 Oeste 0 -- -- 97
2019-10-16 07:00:00 7.7 15 Oeste 28 Oeste 0.2 -- -- 97
2019-10-16 06:00:00 7.7 17 Oeste 32 Noroeste 0 -- -- 96
2019-10-16 05:00:00 7.8 14 Oeste 27 Oeste 0 -- -- 96
2019-10-16 04:00:00 7.9 20 Oeste 33 Oeste 0 -- -- 96
2019-10-16 03:00:00 8.1 16 Oeste 31 Oeste 0 -- -- 96
2019-10-16 02:00:00 8.3 15 Oeste 27 Oeste 0 -- -- 96
2019-10-16 01:00:00 8.2 16 Oeste 25 Oeste 0 -- -- 96
2019-10-16 00:00:00 8.3 15 Oeste 24 Oeste 0.4 -- -- 95
2019-10-15 23:00:00 8.2 6 Oeste 20 Oeste 0.4 -- -- 95
2019-10-15 22:00:00 8.3 13 Oeste 24 Oeste 0.2 -- -- 93
2019-10-15 21:00:00 8.4 14 Oeste 28 Oeste 0.2 -- -- 91
2019-10-15 20:00:00 8.9 19 Oeste 36 Oeste 0 -- -- 86
2019-10-15 19:00:00 10 25 Oeste 38 Oeste 0 -- -- 79
2019-10-15 18:00:00 10.5 12 Oeste 28 Oeste 0 -- -- 76
2019-10-15 17:00:00 11 15 Oeste 27 Oeste 0 -- -- 72
2019-10-15 16:00:00 11 18 Oeste 26 Oeste 0 -- -- 67
2019-10-15 15:00:00 10 19 Oeste 35 Noroeste 0 -- -- 70
2019-10-15 14:00:00 10 20 Oeste 35 Oeste 0 -- -- 71
2019-10-15 13:00:00 9.4 12 Noroeste 32 Oeste 0 -- -- 75
2019-10-15 12:00:00 8.4 17 Noroeste 30 Oeste 0 -- -- 82
2019-10-15 11:00:00 6.4 13 Noroeste 26 Noroeste 0 -- -- 91
2019-10-15 10:00:00 4.4 11 Noroeste 21 Noroeste 0 -- -- 99
2019-10-15 09:00:00 2.2 6 Noroeste 12 Noroeste 0 -- -- 99
2019-10-15 08:00:00 1.4 4 Oeste 8 Oeste 0 -- -- 97
2019-10-15 07:00:00 2.7 5 Oeste 23 Noroeste 0 -- -- 95
2019-10-15 06:00:00 2.6 10 Noroeste 17 Oeste 0 -- -- 97
2019-10-15 05:00:00 3.7 10 Noroeste 22 Oeste 0 -- -- 96
2019-10-15 04:00:00 3.5 10 Noroeste 18 Noroeste 0 -- -- 97
2019-10-15 03:00:00 3.8 8 Noroeste 22 Noroeste 0 -- -- 94
2019-10-15 02:00:00 4.2 14 Noroeste 28 Noroeste 0 -- -- 93
2019-10-15 01:00:00 4.6 12 Noroeste 38 Noroeste 0 -- -- 91
2019-10-15 00:00:00 4.8 23 Noroeste 42 Noroeste 0 -- -- 90
2019-10-14 23:00:00 5.1 25 Noroeste 38 Noroeste 0 -- -- 89
2019-10-14 22:00:00 5.5 16 Noroeste 32 Noroeste 0 -- -- 91
2019-10-14 21:00:00 6.8 17 Noroeste 32 Noroeste 0 -- -- 91
2019-10-14 20:00:00 6.7 17 Noroeste 38 Oeste 0 -- -- 91
2019-10-14 19:00:00 6.5 14 Noroeste 35 Noroeste 1.2 -- -- 93
2019-10-14 18:00:00 8.3 28 Noroeste 48 Noroeste 0.4 -- -- 81
2019-10-14 17:00:00 9.6 18 Oeste 35 Oeste 0 -- -- 93
2019-10-14 16:00:00 9.5 18 Oeste 37 Oeste 0.2 -- -- 92
2019-10-14 15:00:00 9.5 23 Oeste 36 Oeste 0.8 -- -- 92
2019-10-14 14:00:00 9.4 25 Oeste 42 Oeste 0.4 -- -- 89
2019-10-14 13:00:00 10.7 23 Oeste 40 Oeste 0 -- -- 83
2019-10-14 12:00:00 9.6 21 Oeste 41 Oeste 1 -- -- 90
2019-10-14 11:00:00 8.5 16 Noroeste 28 Noroeste 0 -- -- 95
2019-10-14 10:00:00 9.2 12 Noroeste 41 Noroeste 2.2 -- -- 94
2019-10-14 09:00:00 11.9 10 Sudoeste 17 Sudoeste 0 -- -- 87
2019-10-14 08:00:00 11.2 6 Oeste 12 Oeste 0 -- -- 87
2019-10-14 07:00:00 10.6 0 Calma 9 Sudoeste 0.2 -- -- 90
2019-10-14 06:00:00 10.8 0 Calma -- -- 0 -- -- 83
2019-10-14 05:00:00 10.7 4 Nordeste 7 Nordeste 0 -- -- 83
2019-10-14 04:00:00 10.4 0 Calma -- -- 0 -- -- 79
2019-10-14 03:00:00 11 0 Calma 6 Sudoeste 0 -- -- 78
2019-10-14 02:00:00 10.7 3 Oeste 7 Sudoeste 0 -- -- 77
2019-10-14 01:00:00 10.5 5 Oeste 9 Oeste 0 -- -- 77
2019-10-14 00:00:00 12 7 Oeste 20 Oeste 0 -- -- 70